Time;durP1;ratioP1;P1;durP2;ratioP2;P2;SDS_P1;SDS_P2;PMS_P1;PMS_P2;Temp;Humidity;BMP_temperature;BMP_pressure;BME280_temperature;BME280_humidity;BME280_pressure;Samples;Min_cycle;Max_cycle;Signal;HPM_P1;HPM_P2
2024/01/27 00:00:42;;;;;;;0.52;0.32;;;;;;;;;;5140446;27;20209;-64
2024/01/27 00:03:09;;;;;;;0.80;0.40;;;;;;;;;;5140556;27;20206;-64
2024/01/27 00:05:37;;;;;;;0.50;0.40;;;;;;;;;;5140231;27;20581;-64
2024/01/27 00:08:05;;;;;;;0.47;0.40;;;;;;;;;;5139914;27;20234;-64
2024/01/27 00:10:32;;;;;;;0.57;0.30;;;;;;;;;;5139843;27;20233;-64
2024/01/27 00:13:00;;;;;;;0.32;0.30;;;;;;;;;;5140202;27;20578;-64
2024/01/27 00:15:29;;;;;;;0.60;0.40;;;;;;;;;;5140416;27;20209;-64
2024/01/27 00:17:56;;;;;;;0.35;0.35;;;;;;;;;;5140369;27;20330;-63
2024/01/27 00:20:24;;;;;;;0.50;0.30;;;;;;;;;;5139169;27;20262;-64
2024/01/27 00:22:51;;;;;;;1.00;0.30;;;;;;;;;;5139557;27;20471;-64
2024/01/27 00:25:19;;;;;;;0.40;0.38;;;;;;;;;;5139594;27;20263;-64
2024/01/27 00:27:46;;;;;;;1.00;0.50;;;;;;;;;;5139562;27;20266;-64
2024/01/27 00:30:14;;;;;;;0.50;0.30;;;;;;;;;;5139563;27;20280;-64
2024/01/27 00:32:43;;;;;;;0.77;0.40;;;;;;;;;;5139600;27;20241;-64
2024/01/27 00:35:14;;;;;;;0.38;0.30;;;;;;;;;;5139471;27;20651;-64
2024/01/27 00:37:41;;;;;;;0.50;0.50;;;;;;;;;;5138884;27;20306;-64
2024/01/27 00:40:10;;;;;;;0.60;0.30;;;;;;;;;;5138973;27;20262;-63
2024/01/27 00:42:38;;;;;;;0.30;0.30;;;;;;;;;;5139832;27;20204;-64
2024/01/27 00:45:06;;;;;;;0.43;0.30;;;;;;;;;;5139770;27;20257;-63
2024/01/27 00:47:33;;;;;;;0.60;0.47;;;;;;;;;;5139580;27;20533;-64
2024/01/27 00:50:03;;;;;;;0.43;0.40;;;;;;;;;;5139029;27;20226;-64
2024/01/27 00:52:31;;;;;;;0.85;0.50;;;;;;;;;;5139482;27;20240;-64
2024/01/27 00:54:59;;;;;;;0.85;0.43;;;;;;;;;;5139595;27;20202;-64
2024/01/27 00:57:26;;;;;;;0.45;0.30;;;;;;;;;;5139224;27;20263;-64
2024/01/27 00:59:54;;;;;;;0.40;0.30;;;;;;;;;;5138363;27;20205;-64
2024/01/27 01:02:22;;;;;;;1.17;0.47;;;;;;;;;;5139371;27;20347;-64
2024/01/27 01:04:49;;;;;;;0.70;0.40;;;;;;;;;;5138624;27;20236;-64
2024/01/27 01:07:18;;;;;;;0.40;0.30;;;;;;;;;;5138953;27;20237;-64
2024/01/27 01:09:46;;;;;;;0.40;0.30;;;;;;;;;;5138933;27;20226;-64
2024/01/27 01:12:14;;;;;;;0.30;0.30;;;;;;;;;;5138923;27;20256;-64
2024/01/27 01:14:42;;;;;;;0.85;0.20;;;;;;;;;;5138952;27;20203;-64
2024/01/27 01:17:10;;;;;;;0.30;0.30;;;;;;;;;;5138768;27;20540;-63
2024/01/27 01:19:38;;;;;;;0.32;0.30;;;;;;;;;;5138965;27;20199;-64
2024/01/27 01:22:05;;;;;;;0.35;0.30;;;;;;;;;;5139055;27;20301;-64
2024/01/27 01:24:34;;;;;;;0.40;0.40;;;;;;;;;;5138982;27;20203;-64
2024/01/27 01:27:02;;;;;;;0.45;0.38;;;;;;;;;;5138440;27;20251;-64
2024/01/27 01:29:31;;;;;;;0.68;0.35;;;;;;;;;;5138343;27;20230;-64
2024/01/27 01:31:58;;;;;;;1.05;0.40;;;;;;;;;;5139169;28;20283;-64
2024/01/27 01:34:26;;;;;;;0.80;0.50;;;;;;;;;;5139061;28;20210;-64
2024/01/27 01:36:54;;;;;;;1.00;0.30;;;;;;;;;;5138755;28;20230;-64
2024/01/27 01:39:21;;;;;;;0.40;0.40;;;;;;;;;;5138950;28;20198;-64
2024/01/27 01:41:50;;;;;;;0.30;0.20;;;;;;;;;;5138441;28;20262;-64
2024/01/27 01:44:18;;;;;;;0.50;0.40;;;;;;;;;;5138531;28;20231;-64
2024/01/27 01:46:45;;;;;;;0.43;0.30;;;;;;;;;;5138660;28;20213;-64
2024/01/27 01:49:13;;;;;;;0.55;0.40;;;;;;;;;;5138793;28;20272;-64
2024/01/27 01:51:40;;;;;;;0.95;0.30;;;;;;;;;;5138631;28;20249;-63
2024/01/27 01:54:08;;;;;;;0.60;0.30;;;;;;;;;;5138718;28;20231;-65
2024/01/27 01:56:37;;;;;;;0.38;0.38;;;;;;;;;;5138427;28;20202;-64
2024/01/27 01:59:06;;;;;;;0.50;0.30;;;;;;;;;;5138570;28;20198;-64
2024/01/27 02:01:33;;;;;;;0.52;0.30;;;;;;;;;;5138439;28;20214;-63
2024/01/27 02:04:01;;;;;;;0.70;0.40;;;;;;;;;;5138296;28;20258;-64
2024/01/27 02:06:28;;;;;;;0.50;0.32;;;;;;;;;;5138460;28;20217;-64
2024/01/27 02:08:56;;;;;;;0.45;0.32;;;;;;;;;;5138660;28;20692;-64
2024/01/27 02:11:24;;;;;;;0.45;0.40;;;;;;;;;;5141823;27;20481;-64
2024/01/27 02:13:51;;;;;;;0.50;0.30;;;;;;;;;;5142544;27;20206;-64
2024/01/27 02:16:21;;;;;;;0.38;0.38;;;;;;;;;;5142645;27;20214;-64
2024/01/27 02:18:49;;;;;;;0.30;0.28;;;;;;;;;;5142470;27;20199;-64
2024/01/27 02:21:16;;;;;;;1.02;0.40;;;;;;;;;;5142243;27;20251;-64
2024/01/27 02:23:44;;;;;;;0.50;0.40;;;;;;;;;;5142415;27;20210;-64
2024/01/27 02:26:13;;;;;;;0.45;0.20;;;;;;;;;;5141970;27;20293;-64
2024/01/27 02:28:40;;;;;;;0.50;0.28;;;;;;;;;;5142179;27;20210;-64
2024/01/27 02:31:08;;;;;;;0.40;0.32;;;;;;;;;;5142595;27;20213;-64
2024/01/27 02:33:36;;;;;;;0.47;0.40;;;;;;;;;;5142716;27;20489;-64
2024/01/27 02:36:03;;;;;;;0.40;0.30;;;;;;;;;;5142630;27;20502;-64
2024/01/27 02:38:31;;;;;;;0.95;0.40;;;;;;;;;;5142078;27;20209;-64
2024/01/27 02:40:58;;;;;;;0.73;0.40;;;;;;;;;;5141922;27;20210;-63
2024/01/27 02:43:27;;;;;;;0.50;0.40;;;;;;;;;;5142283;27;20237;-64
2024/01/27 02:45:55;;;;;;;0.30;0.30;;;;;;;;;;5141660;27;20238;-65
2024/01/27 02:48:22;;;;;;;0.63;0.40;;;;;;;;;;5141411;27;20586;-64
2024/01/27 02:50:50;;;;;;;0.50;0.22;;;;;;;;;;5141776;27;20233;-64
2024/01/27 02:53:18;;;;;;;0.57;0.40;;;;;;;;;;5141871;27;20210;-65
2024/01/27 02:55:45;;;;;;;0.38;0.30;;;;;;;;;;5141588;27;20202;-64
2024/01/27 02:58:13;;;;;;;0.60;0.38;;;;;;;;;;5141144;27;20206;-64
2024/01/27 03:00:42;;;;;;;0.80;0.40;;;;;;;;;;5141426;27;20199;-64
2024/01/27 03:03:09;;;;;;;0.80;0.50;;;;;;;;;;5141315;27;20203;-65
2024/01/27 03:05:37;;;;;;;0.60;0.40;;;;;;;;;;5141500;27;20262;-64
2024/01/27 03:08:05;;;;;;;1.05;0.40;;;;;;;;;;5140788;27;20209;-64
2024/01/27 03:10:32;;;;;;;0.60;0.40;;;;;;;;;;5140838;27;20226;-64
2024/01/27 03:12:59;;;;;;;0.50;0.32;;;;;;;;;;5140585;27;20543;-64
2024/01/27 03:15:27;;;;;;;0.65;0.40;;;;;;;;;;5140652;27;20227;-64
2024/01/27 03:17:56;;;;;;;0.30;0.30;;;;;;;;;;5140794;27;20582;-65
2024/01/27 03:20:24;;;;;;;0.63;0.40;;;;;;;;;;5140917;27;20288;-65
2024/01/27 03:22:51;;;;;;;0.85;0.30;;;;;;;;;;5139594;27;20264;-64
2024/01/27 03:25:19;;;;;;;0.60;0.30;;;;;;;;;;5140887;27;20202;-64
2024/01/27 03:27:46;;;;;;;0.35;0.30;;;;;;;;;;5140994;27;20267;-64
2024/01/27 03:30:14;;;;;;;0.30;0.30;;;;;;;;;;5141015;27;20222;-64
2024/01/27 03:32:42;;;;;;;0.63;0.50;;;;;;;;;;5140535;27;20206;-64
2024/01/27 03:35:11;;;;;;;0.40;0.30;;;;;;;;;;5140903;27;20206;-65
2024/01/27 03:37:39;;;;;;;0.50;0.30;;;;;;;;;;5140483;27;20271;-65
2024/01/27 03:40:07;;;;;;;0.50;0.40;;;;;;;;;;5140901;27;20276;-65
2024/01/27 03:42:35;;;;;;;0.55;0.35;;;;;;;;;;5140596;27;20202;-64
2024/01/27 03:45:03;;;;;;;0.75;0.30;;;;;;;;;;5140600;27;20263;-64
2024/01/27 03:47:30;;;;;;;0.30;0.30;;;;;;;;;;5140949;27;20209;-64
2024/01/27 03:49:58;;;;;;;0.65;0.52;;;;;;;;;;5140661;27;20234;-65
2024/01/27 03:52:27;;;;;;;0.80;0.57;;;;;;;;;;5140436;27;20203;-64
2024/01/27 03:54:54;;;;;;;0.63;0.55;;;;;;;;;;5140501;27;20202;-65
2024/01/27 03:57:22;;;;;;;0.47;0.40;;;;;;;;;;5140447;27;20479;-64
2024/01/27 03:59:49;;;;;;;0.55;0.40;;;;;;;;;;5140368;27;20220;-64
2024/01/27 04:02:17;;;;;;;0.73;0.50;;;;;;;;;;5140398;27;20246;-65
2024/01/27 04:04:44;;;;;;;0.50;0.40;;;;;;;;;;5139550;27;20234;-64
2024/01/27 04:07:12;;;;;;;0.77;0.50;;;;;;;;;;5140143;27;20301;-64
2024/01/27 04:09:41;;;;;;;0.98;0.50;;;;;;;;;;5140104;27;20609;-64
2024/01/27 04:12:09;;;;;;;0.30;0.30;;;;;;;;;;5140452;27;20203;-65
2024/01/27 04:14:36;;;;;;;0.60;0.40;;;;;;;;;;5140141;27;20598;-65
2024/01/27 04:17:04;;;;;;;1.38;0.45;;;;;;;;;;5140094;27;20221;-64
2024/01/27 04:19:31;;;;;;;0.77;0.40;;;;;;;;;;5139952;27;20230;-64
2024/01/27 04:21:59;;;;;;;0.50;0.40;;;;;;;;;;5140126;27;20235;-64
2024/01/27 04:24:26;;;;;;;0.52;0.40;;;;;;;;;;5140068;27;20209;-64
2024/01/27 04:26:56;;;;;;;0.93;0.40;;;;;;;;;;5139705;27;20202;-64
2024/01/27 04:29:23;;;;;;;0.85;0.40;;;;;;;;;;5139792;27;20221;-64
2024/01/27 04:31:51;;;;;;;0.85;0.40;;;;;;;;;;5139660;27;20213;-64
2024/01/27 04:34:18;;;;;;;0.50;0.35;;;;;;;;;;5139669;27;20300;-65
2024/01/27 04:36:46;;;;;;;0.68;0.30;;;;;;;;;;5139890;27;20202;-64
2024/01/27 04:39:14;;;;;;;0.43;0.30;;;;;;;;;;5139886;27;20570;-63
2024/01/27 04:41:43;;;;;;;1.40;0.50;;;;;;;;;;5139482;27;20209;-64
2024/01/27 04:44:12;;;;;;;0.50;0.40;;;;;;;;;;5139340;27;20202;-65
2024/01/27 04:46:40;;;;;;;0.50;0.40;;;;;;;;;;5139213;27;20202;-64
2024/01/27 04:49:07;;;;;;;1.02;0.50;;;;;;;;;;5138782;27;20206;-64
2024/01/27 04:51:35;;;;;;;0.40;0.40;;;;;;;;;;5138856;27;20306;-64
2024/01/27 04:54:02;;;;;;;0.30;0.22;;;;;;;;;;5139154;27;20202;-64
2024/01/27 04:56:30;;;;;;;0.85;0.50;;;;;;;;;;5138885;27;20210;-65
2024/01/27 04:58:58;;;;;;;0.70;0.43;;;;;;;;;;5138766;27;20606;-63
2024/01/27 05:01:26;;;;;;;0.63;0.40;;;;;;;;;;5139437;27;20198;-63
2024/01/27 05:03:54;;;;;;;0.80;0.32;;;;;;;;;;5139070;27;20816;-63
2024/01/27 05:06:21;;;;;;;0.50;0.30;;;;;;;;;;5138809;27;20209;-63
2024/01/27 05:08:49;;;;;;;1.13;0.30;;;;;;;;;;5139334;27;20203;-63
2024/01/27 05:11:17;;;;;;;0.80;0.50;;;;;;;;;;5139017;27;20498;-63
2024/01/27 05:13:44;;;;;;;0.40;0.30;;;;;;;;;;5139194;27;20258;-63
2024/01/27 05:16:12;;;;;;;0.57;0.30;;;;;;;;;;5139447;27;20213;-63
2024/01/27 05:18:40;;;;;;;0.80;0.40;;;;;;;;;;5138880;27;20202;-63
2024/01/27 05:21:08;;;;;;;0.90;0.43;;;;;;;;;;5138775;27;20202;-63
2024/01/27 05:23:35;;;;;;;0.68;0.40;;;;;;;;;;5138756;27;20203;-63
2024/01/27 05:26:03;;;;;;;0.93;0.35;;;;;;;;;;5139037;27;20209;-64
2024/01/27 05:28:31;;;;;;;0.70;0.45;;;;;;;;;;5139022;27;20202;-63
2024/01/27 05:30:59;;;;;;;0.43;0.40;;;;;;;;;;5139072;27;20495;-63
2024/01/27 05:33:26;;;;;;;1.08;0.47;;;;;;;;;;5138847;28;20213;-63
2024/01/27 05:35:55;;;;;;;1.42;0.50;;;;;;;;;;5139405;28;20212;-63
2024/01/27 05:38:22;;;;;;;0.73;0.50;;;;;;;;;;5138806;28;20202;-63
2024/01/27 05:40:50;;;;;;;0.80;0.60;;;;;;;;;;5138995;28;20198;-64
2024/01/27 05:43:18;;;;;;;0.50;0.47;;;;;;;;;;5139009;28;20210;-63
2024/01/27 05:45:46;;;;;;;0.80;0.40;;;;;;;;;;5141074;27;20488;-63
2024/01/27 05:48:13;;;;;;;0.40;0.40;;;;;;;;;;5142763;27;20202;-64
2024/01/27 05:50:43;;;;;;;0.50;0.40;;;;;;;;;;5142843;27;20241;-64
2024/01/27 05:53:12;;;;;;;0.75;0.47;;;;;;;;;;5142600;27;20202;-64
2024/01/27 05:55:39;;;;;;;0.75;0.57;;;;;;;;;;5142547;27;20202;-63
2024/01/27 05:58:07;;;;;;;1.05;0.43;;;;;;;;;;5142621;27;20202;-63
2024/01/27 06:00:34;;;;;;;0.75;0.40;;;;;;;;;;5142704;27;20205;-63
2024/01/27 06:03:02;;;;;;;0.52;0.47;;;;;;;;;;5142518;27;20213;-64
2024/01/27 06:05:29;;;;;;;0.70;0.40;;;;;;;;;;5141832;27;20240;-63
2024/01/27 06:07:57;;;;;;;0.60;0.50;;;;;;;;;;5142988;27;20297;-63
2024/01/27 06:10:25;;;;;;;1.00;0.80;;;;;;;;;;5142075;27;20230;-64
2024/01/27 06:12:53;;;;;;;0.40;0.40;;;;;;;;;;5142209;27;20233;-64
2024/01/27 06:15:20;;;;;;;0.35;0.35;;;;;;;;;;5141528;27;20589;-64
2024/01/27 06:17:48;;;;;;;0.52;0.30;;;;;;;;;;5141881;27;20202;-64
2024/01/27 06:20:17;;;;;;;0.70;0.40;;;;;;;;;;5141719;27;20198;-64
2024/01/27 06:22:44;;;;;;;0.85;0.40;;;;;;;;;;5141403;27;20592;-64
2024/01/27 06:25:11;;;;;;;0.55;0.43;;;;;;;;;;5141612;27;20219;-64
2024/01/27 06:27:41;;;;;;;0.50;0.40;;;;;;;;;;5141936;27;20212;-63
2024/01/27 06:30:10;;;;;;;0.60;0.60;;;;;;;;;;5141496;27;20222;-63
2024/01/27 06:32:37;;;;;;;1.08;0.60;;;;;;;;;;5141682;27;20301;-63
2024/01/27 06:35:05;;;;;;;0.60;0.50;;;;;;;;;;5141386;27;20233;-63
2024/01/27 06:37:32;;;;;;;1.00;0.57;;;;;;;;;;5141358;27;20212;-63
2024/01/27 06:40:00;;;;;;;0.88;0.55;;;;;;;;;;5140952;27;20593;-63
2024/01/27 06:42:27;;;;;;;1.50;0.60;;;;;;;;;;5141191;27;20221;-64
2024/01/27 06:44:56;;;;;;;0.68;0.60;;;;;;;;;;5141118;27;20202;-64
2024/01/27 06:47:23;;;;;;;0.60;0.60;;;;;;;;;;5141536;27;20221;-64
2024/01/27 06:49:51;;;;;;;1.20;0.73;;;;;;;;;;5141511;27;20202;-63
2024/01/27 06:52:18;;;;;;;1.00;0.57;;;;;;;;;;5141303;27;20209;-63
2024/01/27 06:54:46;;;;;;;1.13;0.80;;;;;;;;;;5141068;27;20290;-63
2024/01/27 06:57:23;;;;;;;1.27;1.00;;;;;;;;;;5141122;27;20198;-63
2024/01/27 06:59:52;;;;;;;1.80;0.82;;;;;;;;;;5141240;27;20202;-64
2024/01/27 07:02:23;;;;;;;1.30;1.20;;;;;;;;;;5141249;27;20203;-63
2024/01/27 07:04:52;;;;;;;1.50;0.82;;;;;;;;;;5141053;27;20242;-63
2024/01/27 07:07:20;;;;;;;1.30;0.90;;;;;;;;;;5140988;27;20207;-63
2024/01/27 07:09:47;;;;;;;1.20;1.00;;;;;;;;;;5140430;27;20202;-63
2024/01/27 07:12:15;;;;;;;1.67;1.00;;;;;;;;;;5140422;27;20249;-63
2024/01/27 07:14:42;;;;;;;2.10;1.00;;;;;;;;;;5140823;27;20457;-63
2024/01/27 07:17:10;;;;;;;1.35;1.10;;;;;;;;;;5140756;27;20202;-63
2024/01/27 07:19:38;;;;;;;1.52;1.00;;;;;;;;;;5140382;27;20583;-63
2024/01/27 07:22:06;;;;;;;1.70;1.15;;;;;;;;;;5140200;27;20198;-64
2024/01/27 07:24:33;;;;;;;1.27;1.05;;;;;;;;;;5140543;27;20206;-64
2024/01/27 07:27:01;;;;;;;1.33;1.08;;;;;;;;;;5140181;27;20217;-64
2024/01/27 07:29:29;;;;;;;2.45;1.10;;;;;;;;;;5139827;27;20221;-64
2024/01/27 07:31:56;;;;;;;3.40;1.42;;;;;;;;;;5140028;27;20253;-64
2024/01/27 07:34:23;;;;;;;1.77;1.30;;;;;;;;;;5140265;27;20468;-64
2024/01/27 07:36:52;;;;;;;2.42;1.30;;;;;;;;;;5140140;27;20202;-64
2024/01/27 07:39:20;;;;;;;1.55;1.20;;;;;;;;;;5140367;27;20210;-64
2024/01/27 07:41:48;;;;;;;1.52;1.20;;;;;;;;;;5140097;27;20209;-64
2024/01/27 07:44:16;;;;;;;2.30;1.48;;;;;;;;;;5140091;27;20206;-64
2024/01/27 07:46:43;;;;;;;2.22;1.50;;;;;;;;;;5139661;27;20206;-64
2024/01/27 07:49:12;;;;;;;2.75;1.30;;;;;;;;;;5139991;27;20592;-64
2024/01/27 07:51:40;;;;;;;2.92;1.42;;;;;;;;;;5140035;27;20230;-64
2024/01/27 07:54:09;;;;;;;3.20;1.50;;;;;;;;;;5139453;27;20206;-63
2024/01/27 07:56:36;;;;;;;1.92;1.30;;;;;;;;;;5139737;27;20213;-63
2024/01/27 07:59:03;;;;;;;2.28;1.50;;;;;;;;;;5139672;27;20202;-64
2024/01/27 08:01:31;;;;;;;2.72;1.40;;;;;;;;;;5139420;27;20198;-64
2024/01/27 08:03:58;;;;;;;1.83;1.30;;;;;;;;;;5139139;27;20234;-64
2024/01/27 08:06:29;;;;;;;1.40;1.25;;;;;;;;;;5138910;27;20202;-64
2024/01/27 08:08:56;;;;;;;2.08;1.50;;;;;;;;;;5138374;27;20202;-64
2024/01/27 08:11:26;;;;;;;2.30;1.52;;;;;;;;;;5138830;27;20222;-64
2024/01/27 08:13:53;;;;;;;2.05;1.20;;;;;;;;;;5138989;27;20212;-63
2024/01/27 08:16:21;;;;;;;1.50;1.20;;;;;;;;;;5139085;27;20233;-63
2024/01/27 08:18:50;;;;;;;2.15;1.50;;;;;;;;;;5139343;27;20209;-63
2024/01/27 08:21:17;;;;;;;3.33;1.58;;;;;;;;;;5138465;27;20209;-63
2024/01/27 08:23:45;;;;;;;1.70;1.40;;;;;;;;;;5137981;27;20562;-63
2024/01/27 08:26:12;;;;;;;3.40;1.50;;;;;;;;;;5139216;27;20210;-63
2024/01/27 08:28:41;;;;;;;2.50;1.40;;;;;;;;;;5138936;27;20224;-64
2024/01/27 08:31:09;;;;;;;1.90;1.38;;;;;;;;;;5138906;27;20233;-64
2024/01/27 08:33:36;;;;;;;1.80;1.40;;;;;;;;;;5138939;27;20217;-63
2024/01/27 08:36:03;;;;;;;3.20;1.50;;;;;;;;;;5138644;27;20202;-63
2024/01/27 08:38:31;;;;;;;3.30;1.60;;;;;;;;;;5138816;27;20213;-63
2024/01/27 08:40:58;;;;;;;1.83;1.23;;;;;;;;;;5138843;27;20225;-64
2024/01/27 08:43:25;;;;;;;2.38;1.30;;;;;;;;;;5138568;27;20202;-63
2024/01/27 08:45:56;;;;;;;3.13;1.58;;;;;;;;;;5138632;27;20613;-63
2024/01/27 08:48:24;;;;;;;2.58;1.67;;;;;;;;;;5138873;27;20217;-65
2024/01/27 08:50:51;;;;;;;2.40;1.30;;;;;;;;;;5137801;27;20606;-63
2024/01/27 08:53:18;;;;;;;2.63;1.65;;;;;;;;;;5139025;27;20202;-63
2024/01/27 08:55:45;;;;;;;4.50;1.63;;;;;;;;;;5138379;27;20484;-64
2024/01/27 08:58:13;;;;;;;2.85;1.30;;;;;;;;;;5138486;27;20598;-63
2024/01/27 09:00:41;;;;;;;2.38;1.38;;;;;;;;;;5137825;27;20221;-63
2024/01/27 09:03:09;;;;;;;2.97;1.40;;;;;;;;;;5137805;27;20213;-63
2024/01/27 09:05:37;;;;;;;3.22;1.55;;;;;;;;;;5138122;27;20226;-63
2024/01/27 09:08:04;;;;;;;2.45;1.42;;;;;;;;;;5138110;27;20202;-64
2024/01/27 09:10:31;;;;;;;2.45;1.40;;;;;;;;;;5137760;27;20202;-63
2024/01/27 09:12:59;;;;;;;2.20;1.27;;;;;;;;;;5138190;27;20222;-63
2024/01/27 09:15:26;;;;;;;2.20;1.42;;;;;;;;;;5138512;27;20207;-63
2024/01/27 09:17:54;;;;;;;2.40;1.10;;;;;;;;;;5138199;27;20201;-63
2024/01/27 09:20:22;;;;;;;2.45;1.42;;;;;;;;;;5137358;27;20477;-63
2024/01/27 09:22:50;;;;;;;2.63;1.45;;;;;;;;;;5136861;27;20498;-63
2024/01/27 09:25:18;;;;;;;1.58;1.15;;;;;;;;;;5136852;27;20463;-63
2024/01/27 09:27:47;;;;;;;2.25;1.30;;;;;;;;;;5137601;27;20320;-64
2024/01/27 09:30:15;;;;;;;2.35;1.30;;;;;;;;;;5137232;27;20209;-63
2024/01/27 09:32:42;;;;;;;2.30;1.30;;;;;;;;;;5137544;27;20232;-63
2024/01/27 09:35:10;;;;;;;3.60;1.52;;;;;;;;;;5137018;27;20217;-63
2024/01/27 09:37:38;;;;;;;1.40;1.30;;;;;;;;;;5137204;28;20578;-63
2024/01/27 09:40:08;;;;;;;1.95;1.48;;;;;;;;;;5137107;28;20237;-63
2024/01/27 09:42:36;;;;;;;1.40;1.13;;;;;;;;;;5136458;28;20194;-63
2024/01/27 09:45:04;;;;;;;2.47;1.10;;;;;;;;;;5137035;28;20209;-65
2024/01/27 09:47:31;;;;;;;1.42;1.02;;;;;;;;;;5137079;28;20237;-63
2024/01/27 09:49:58;;;;;;;1.88;1.05;;;;;;;;;;5137039;28;20202;-62
2024/01/27 09:52:26;;;;;;;2.35;1.25;;;;;;;;;;5137657;28;20222;-66
2024/01/27 09:54:55;;;;;;;1.23;0.95;;;;;;;;;;5136824;28;20202;-63
2024/01/27 09:57:22;;;;;;;2.50;1.30;;;;;;;;;;5137696;28;20212;-63
2024/01/27 09:59:51;;;;;;;1.52;0.95;;;;;;;;;;5137084;28;20210;-63
2024/01/27 10:02:19;;;;;;;1.40;1.10;;;;;;;;;;5136059;28;20199;-65
2024/01/27 10:04:49;;;;;;;4.70;1.00;;;;;;;;;;5135944;28;20368;-63
2024/01/27 10:07:17;;;;;;;2.40;1.30;;;;;;;;;;5136321;28;20210;-63
2024/01/27 10:09:43;;;;;;;1.85;1.23;;;;;;;;;;5136702;28;20212;-63
2024/01/27 10:12:15;;;;;;;2.20;1.25;;;;;;;;;;5136486;28;20244;-63
2024/01/27 10:14:44;;;;;;;1.17;0.90;;;;;;;;;;5137201;28;20320;-63
2024/01/27 10:17:13;;;;;;;1.63;1.10;;;;;;;;;;5136476;28;20203;-64
2024/01/27 10:19:40;;;;;;;1.55;0.93;;;;;;;;;;5136942;28;20202;-63
2024/01/27 10:22:08;;;;;;;2.20;1.10;;;;;;;;;;5136607;28;20571;-63
2024/01/27 10:24:35;;;;;;;2.03;1.02;;;;;;;;;;5136601;28;20647;-65
2024/01/27 10:27:03;;;;;;;1.45;1.17;;;;;;;;;;5136163;28;20286;-64
2024/01/27 10:29:32;;;;;;;1.77;0.98;;;;;;;;;;5136556;28;20199;-63
2024/01/27 10:32:10;;;;;;;1.52;0.90;;;;;;;;;;5139495;27;20217;-64
2024/01/27 10:34:37;;;;;;;1.00;0.90;;;;;;;;;;5139968;27;20202;-64
2024/01/27 10:37:05;;;;;;;2.22;1.00;;;;;;;;;;5139462;27;20203;-65
2024/01/27 10:39:32;;;;;;;1.77;1.10;;;;;;;;;;5139982;27;20202;-63
2024/01/27 10:42:02;;;;;;;2.13;1.15;;;;;;;;;;5139921;27;20514;-63
2024/01/27 10:44:29;;;;;;;1.50;1.20;;;;;;;;;;5139540;27;20206;-64
2024/01/27 10:47:03;;;;;;;2.13;1.05;;;;;;;;;;5139769;27;20214;-64
2024/01/27 10:49:33;;;;;;;1.20;0.80;;;;;;;;;;5139772;27;20241;-63
2024/01/27 10:52:01;;;;;;;4.65;1.20;;;;;;;;;;5139063;27;20230;-63
2024/01/27 10:54:29;;;;;;;1.58;0.98;;;;;;;;;;5139374;27;20202;-64
2024/01/27 10:56:58;;;;;;;1.55;1.00;;;;;;;;;;5139788;27;20194;-63
2024/01/27 10:59:27;;;;;;;1.25;1.00;;;;;;;;;;5140068;27;20233;-64
2024/01/27 11:01:56;;;;;;;1.75;1.05;;;;;;;;;;5139874;27;20281;-64
2024/01/27 11:04:25;;;;;;;2.58;0.93;;;;;;;;;;5139251;27;20234;-64
2024/01/27 11:06:52;;;;;;;1.45;1.00;;;;;;;;;;5139147;27;20210;-64
2024/01/27 11:09:20;;;;;;;1.60;0.90;;;;;;;;;;5137601;27;20808;-64
2024/01/27 11:11:48;;;;;;;1.90;1.27;;;;;;;;;;5138445;27;20722;-64
2024/01/27 11:14:16;;;;;;;2.30;1.00;;;;;;;;;;5140167;27;20202;-64
2024/01/27 11:16:46;;;;;;;1.50;1.02;;;;;;;;;;5139282;27;20225;-65
2024/01/27 11:19:13;;;;;;;2.38;1.00;;;;;;;;;;5139247;27;20205;-64
2024/01/27 11:21:42;;;;;;;2.28;0.93;;;;;;;;;;5138568;27;20218;-64
2024/01/27 11:24:16;;;;;;;1.88;0.90;;;;;;;;;;5138196;27;20202;-65
2024/01/27 11:26:44;;;;;;;1.88;0.98;;;;;;;;;;5138075;27;20200;-65
2024/01/27 11:29:19;;;;;;;2.22;0.90;;;;;;;;;;5138422;27;20222;-64
2024/01/27 11:31:46;;;;;;;2.72;1.15;;;;;;;;;;5138458;27;20221;-64
2024/01/27 11:34:16;;;;;;;1.33;1.00;;;;;;;;;;5138379;27;20202;-65
2024/01/27 11:36:45;;;;;;;2.50;0.88;;;;;;;;;;5137798;27;20198;-65
2024/01/27 11:39:24;;;;;;;1.25;0.85;;;;;;;;;;5138024;27;20210;-65
2024/01/27 11:41:53;;;;;;;1.27;0.73;;;;;;;;;;5137717;27;20258;-65
2024/01/27 11:44:21;;;;;;;1.63;1.08;;;;;;;;;;5137856;27;20203;-65
2024/01/27 11:46:49;;;;;;;1.88;0.80;;;;;;;;;;5137680;27;20199;-65
2024/01/27 11:49:17;;;;;;;1.83;0.90;;;;;;;;;;5137931;27;20205;-64
2024/01/27 11:51:45;;;;;;;3.30;0.80;;;;;;;;;;5137942;27;20207;-64
2024/01/27 11:54:13;;;;;;;2.72;0.90;;;;;;;;;;5137790;27;20202;-64
2024/01/27 11:56:41;;;;;;;1.52;0.60;;;;;;;;;;5137683;27;20202;-64
2024/01/27 11:59:08;;;;;;;1.00;0.80;;;;;;;;;;5137853;27;20202;-65
2024/01/27 12:01:35;;;;;;;1.33;0.80;;;;;;;;;;5137422;27;20209;-65
2024/01/27 12:04:03;;;;;;;1.05;0.80;;;;;;;;;;5136858;27;20237;-65
2024/01/27 12:06:30;;;;;;;1.00;0.73;;;;;;;;;;5136957;27;20198;-64
2024/01/27 12:08:59;;;;;;;1.85;0.80;;;;;;;;;;5137339;27;20503;-64
2024/01/27 12:11:30;;;;;;;0.98;0.70;;;;;;;;;;5136575;27;20209;-64
2024/01/27 12:13:57;;;;;;;0.82;0.80;;;;;;;;;;5137179;27;20222;-64
2024/01/27 12:16:24;;;;;;;1.30;0.80;;;;;;;;;;5136825;27;20209;-64
2024/01/27 12:18:54;;;;;;;2.08;0.90;;;;;;;;;;5136823;27;20214;-65
2024/01/27 12:21:21;;;;;;;1.27;0.90;;;;;;;;;;5136294;27;20214;-65
2024/01/27 12:23:53;;;;;;;1.65;0.70;;;;;;;;;;5136160;27;20209;-65
2024/01/27 12:26:23;;;;;;;1.42;0.88;;;;;;;;;;5137285;27;20205;-65
2024/01/27 12:28:50;;;;;;;1.33;1.00;;;;;;;;;;5136798;27;20206;-65
2024/01/27 12:31:18;;;;;;;1.65;0.75;;;;;;;;;;5135754;27;20202;-65
2024/01/27 12:33:52;;;;;;;1.35;0.93;;;;;;;;;;5135756;27;20229;-65
2024/01/27 12:36:20;;;;;;;1.15;0.80;;;;;;;;;;5137300;27;20563;-64
2024/01/27 12:38:48;;;;;;;1.38;0.90;;;;;;;;;;5136294;27;20686;-64
2024/01/27 12:41:16;;;;;;;1.25;0.70;;;;;;;;;;5136204;27;20208;-64
2024/01/27 12:43:45;;;;;;;1.00;0.93;;;;;;;;;;5136073;27;20293;-65
2024/01/27 12:46:12;;;;;;;1.52;0.90;;;;;;;;;;5136485;27;20198;-65
2024/01/27 12:48:39;;;;;;;1.55;0.90;;;;;;;;;;5136885;27;20212;-65
2024/01/27 12:51:07;;;;;;;1.50;0.80;;;;;;;;;;5136473;27;20730;-65
2024/01/27 12:53:34;;;;;;;2.42;0.90;;;;;;;;;;5136073;27;20239;-65
2024/01/27 12:56:01;;;;;;;1.42;0.80;;;;;;;;;;5136287;27;20209;-65
2024/01/27 12:58:29;;;;;;;1.13;0.80;;;;;;;;;;5136978;27;20206;-64
2024/01/27 13:00:57;;;;;;;1.63;0.80;;;;;;;;;;5135709;27;20202;-65
2024/01/27 13:03:25;;;;;;;1.05;0.85;;;;;;;;;;5136576;27;20205;-65
2024/01/27 13:05:53;;;;;;;1.60;0.73;;;;;;;;;;5136097;27;20652;-64
2024/01/27 13:08:20;;;;;;;1.42;0.90;;;;;;;;;;5137631;27;20501;-64
2024/01/27 13:10:47;;;;;;;1.23;0.90;;;;;;;;;;5136532;27;20474;-64
2024/01/27 13:13:15;;;;;;;1.92;1.00;;;;;;;;;;5136024;27;20233;-64
2024/01/27 13:15:43;;;;;;;1.65;1.10;;;;;;;;;;5135798;27;20198;-64
2024/01/27 13:18:11;;;;;;;2.03;0.95;;;;;;;;;;5135794;27;20202;-64
2024/01/27 13:20:39;;;;;;;1.20;0.80;;;;;;;;;;5136756;27;20213;-64
2024/01/27 13:23:07;;;;;;;1.75;0.80;;;;;;;;;;5136158;27;20274;-64
2024/01/27 13:25:34;;;;;;;1.35;0.88;;;;;;;;;;5136052;27;20201;-64
2024/01/27 13:28:02;;;;;;;1.20;1.00;;;;;;;;;;5136243;27;20742;-64
2024/01/27 13:30:29;;;;;;;1.48;0.93;;;;;;;;;;5135677;27;20233;-64
2024/01/27 13:32:56;;;;;;;1.00;0.70;;;;;;;;;;5134673;27;20230;-64
2024/01/27 13:35:25;;;;;;;2.35;0.80;;;;;;;;;;5135569;27;20270;-64
2024/01/27 13:37:53;;;;;;;1.75;1.00;;;;;;;;;;5136052;27;20210;-65
2024/01/27 13:40:20;;;;;;;2.00;0.98;;;;;;;;;;5134614;28;20229;-64
2024/01/27 13:42:48;;;;;;;1.75;1.00;;;;;;;;;;5136316;28;20548;-64
2024/01/27 13:45:15;;;;;;;2.78;1.27;;;;;;;;;;5135249;28;20612;-65
2024/01/27 13:47:43;;;;;;;2.17;1.00;;;;;;;;;;5135452;28;20209;-64
2024/01/27 13:50:11;;;;;;;2.30;1.05;;;;;;;;;;5135749;28;20202;-64
2024/01/27 13:52:40;;;;;;;2.55;1.08;;;;;;;;;;5135334;28;20223;-64
2024/01/27 13:55:08;;;;;;;2.50;1.40;;;;;;;;;;5136244;28;20209;-64
2024/01/27 13:57:36;;;;;;;2.95;1.40;;;;;;;;;;5134961;28;20746;-64
2024/01/27 14:00:03;;;;;;;2.70;1.40;;;;;;;;;;5136159;28;20590;-64
2024/01/27 14:02:31;;;;;;;3.97;1.48;;;;;;;;;;5136278;28;20198;-64
2024/01/27 14:04:58;;;;;;;3.00;1.73;;;;;;;;;;5135806;27;20322;-64
2024/01/27 14:07:26;;;;;;;3.33;1.73;;;;;;;;;;5138831;27;20212;-64
2024/01/27 14:09:54;;;;;;;2.85;1.40;;;;;;;;;;5140089;27;20496;-64
2024/01/27 14:12:22;;;;;;;3.45;1.67;;;;;;;;;;5139005;27;20225;-64
2024/01/27 14:14:50;;;;;;;3.53;1.55;;;;;;;;;;5139729;27;20217;-64
2024/01/27 14:17:20;;;;;;;2.70;1.33;;;;;;;;;;5140138;27;20213;-64
2024/01/27 14:19:47;;;;;;;3.28;1.60;;;;;;;;;;5139097;27;20254;-64
2024/01/27 14:22:15;;;;;;;3.25;1.58;;;;;;;;;;5138152;27;20217;-64
2024/01/27 14:24:42;;;;;;;4.13;1.80;;;;;;;;;;5138512;27;20205;-64
2024/01/27 14:27:11;;;;;;;4.03;1.90;;;;;;;;;;5139499;27;20648;-64
2024/01/27 14:29:38;;;;;;;4.40;1.90;;;;;;;;;;5139506;27;20209;-64
2024/01/27 14:32:06;;;;;;;4.97;1.83;;;;;;;;;;5138414;27;20215;-64
2024/01/27 14:34:34;;;;;;;5.50;2.22;;;;;;;;;;5138004;27;20619;-64
2024/01/27 14:37:02;;;;;;;4.20;1.92;;;;;;;;;;5138782;27;20198;-64
2024/01/27 14:39:30;;;;;;;4.90;1.90;;;;;;;;;;5139259;27;20481;-64
2024/01/27 14:41:58;;;;;;;5.32;2.05;;;;;;;;;;5139137;27;20194;-64
2024/01/27 14:44:27;;;;;;;3.05;1.63;;;;;;;;;;5139540;27;20198;-64
2024/01/27 14:46:54;;;;;;;5.10;1.98;;;;;;;;;;5139916;27;20225;-64